createdAt,value
2023-02-11T00:01:30.154Z,23.33
2023-02-11T00:03:58.447Z,29.85
2023-02-11T00:06:28.114Z,24.80
2023-02-11T00:08:55.850Z,26.33
2023-02-11T00:11:26.511Z,28.98
2023-02-11T00:13:53.594Z,23.42
2023-02-11T00:16:21.820Z,28.92
2023-02-11T00:18:50.405Z,27.02
2023-02-11T00:21:20.326Z,23.38
2023-02-11T00:23:48.229Z,28.02
2023-02-11T00:26:21.389Z,21.45
2023-02-11T00:28:50.343Z,30.08
2023-02-11T00:31:19.020Z,30.63
2023-02-11T00:33:46.064Z,25.48
2023-02-11T00:36:18.665Z,24.27
2023-02-11T00:38:47.230Z,27.13
2023-02-11T00:41:14.922Z,27.90
2023-02-11T00:43:41.891Z,24.83
2023-02-11T00:46:08.951Z,25.20
2023-02-11T00:48:36.127Z,30.08
2023-02-11T00:51:04.402Z,25.83
2023-02-11T00:53:31.744Z,28.25
2023-02-11T00:55:58.445Z,31.80
2023-02-11T00:58:25.399Z,27.88
2023-02-11T01:00:53.444Z,28.73
2023-02-11T01:03:20.165Z,27.02
2023-02-11T01:05:46.949Z,31.83
2023-02-11T01:08:13.884Z,31.95
2023-02-11T01:10:40.753Z,25.02
2023-02-11T01:13:07.734Z,25.98
2023-02-11T01:15:34.597Z,27.02
2023-02-11T01:18:01.614Z,25.52
2023-02-11T01:20:29.798Z,28.90
2023-02-11T01:22:56.535Z,30.17
2023-02-11T01:25:23.285Z,26.15
2023-02-11T01:27:50.065Z,25.63
2023-02-11T01:30:16.878Z,28.75
2023-02-11T01:32:43.605Z,36.65
2023-02-11T01:35:10.482Z,26.85
2023-02-11T01:37:37.124Z,31.75
2023-02-11T01:40:06.304Z,31.20
2023-02-11T01:42:33.170Z,26.45
2023-02-11T01:45:01.924Z,29.75
2023-02-11T01:47:28.565Z,31.83
2023-02-11T01:50:01.985Z,23.38
2023-02-11T01:52:40.688Z,25.60
2023-02-11T01:55:31.562Z,28.67
2023-02-11T01:58:03.926Z,27.27
2023-02-11T02:00:33.502Z,34.08
2023-02-11T02:03:11.523Z,25.38
2023-02-11T02:05:49.153Z,29.70
2023-02-11T02:08:36.428Z,26.08
2023-02-11T02:11:03.954Z,30.52
2023-02-11T02:13:33.605Z,29.20
2023-02-11T02:16:09.322Z,32.67
2023-02-11T02:19:14.465Z,28.90
2023-02-11T02:21:50.093Z,28.13
2023-02-11T02:24:57.849Z,31.05
2023-02-11T02:28:00.881Z,26.67
2023-02-11T02:30:42.885Z,28.85
2023-02-11T02:33:40.928Z,30.40
2023-02-11T02:36:43.062Z,27.55
2023-02-11T02:39:21.396Z,31.10
2023-02-11T02:41:50.978Z,29.10
2023-02-11T02:44:18.947Z,25.10
2023-02-11T02:46:46.138Z,29.52
2023-02-11T02:49:14.991Z,29.58
2023-02-11T02:52:15.879Z,29.75
2023-02-11T02:54:56.540Z,29.17
2023-02-11T02:57:33.544Z,29.80
2023-02-11T03:00:32.849Z,33.85
2023-02-11T03:03:31.309Z,33.03
2023-02-11T03:06:17.750Z,29.42
2023-02-11T03:08:52.237Z,31.75
2023-02-11T03:11:20.376Z,33.47
2023-02-11T03:13:49.571Z,32.08
2023-02-11T03:16:25.053Z,31.75
2023-02-11T03:19:05.819Z,31.60
2023-02-11T03:21:36.157Z,31.17
2023-02-11T03:24:07.801Z,31.70
2023-02-11T03:26:49.842Z,30.70
2023-02-11T03:29:43.291Z,36.50
2023-02-11T03:32:20.082Z,31.77
2023-02-11T03:34:57.639Z,36.70
2023-02-11T03:37:33.452Z,31.98
2023-02-11T03:40:08.221Z,31.30
2023-02-11T03:42:42.760Z,30.05
2023-02-11T03:45:14.442Z,31.05
2023-02-11T03:47:47.635Z,30.52
2023-02-11T03:50:16.628Z,33.47
2023-02-11T03:52:45.315Z,33.38
2023-02-11T03:55:16.203Z,33.65
2023-02-11T03:57:43.124Z,31.88
2023-02-11T04:00:11.257Z,34.70
2023-02-11T04:02:39.536Z,32.72
2023-02-11T04:05:08.051Z,31.88
2023-02-11T04:07:34.994Z,33.85
2023-02-11T04:10:01.831Z,34.90
2023-02-11T04:12:28.662Z,33.20
2023-02-11T04:14:55.316Z,32.90
2023-02-11T04:17:22.147Z,32.63
2023-02-11T04:19:48.825Z,33.85
2023-02-11T04:22:15.644Z,35.90
2023-02-11T04:24:44.121Z,32.83
2023-02-11T04:27:11.009Z,33.42
2023-02-11T04:29:37.904Z,32.20
2023-02-11T04:32:04.862Z,34.67
2023-02-11T04:34:32.237Z,35.20
2023-02-11T04:36:58.845Z,34.45
2023-02-11T04:39:25.651Z,31.85
2023-02-11T04:41:52.488Z,31.88
2023-02-11T04:44:19.202Z,30.50
2023-02-11T04:46:46.100Z,30.70
2023-02-11T04:49:14.629Z,34.60
2023-02-11T04:51:41.415Z,34.28
2023-02-11T04:54:08.526Z,34.67
2023-02-11T04:56:35.227Z,31.63
2023-02-11T04:59:02.886Z,30.48
2023-02-11T05:01:29.955Z,32.33
2023-02-11T05:03:56.905Z,35.33
2023-02-11T05:06:23.892Z,29.42
2023-02-11T05:08:50.643Z,34.55
2023-02-11T05:11:23.615Z,31.83
2023-02-11T05:13:50.507Z,33.00
2023-02-11T05:16:19.121Z,32.85
2023-02-11T05:18:45.814Z,36.83
2023-02-11T05:21:15.148Z,37.20
2023-02-11T05:23:42.728Z,33.45
2023-02-11T05:26:10.240Z,33.75
2023-02-11T05:28:37.220Z,37.90
2023-02-11T05:31:05.019Z,32.55
2023-02-11T05:33:32.233Z,32.80
2023-02-11T05:36:08.628Z,32.53
2023-02-11T05:38:35.938Z,32.22
2023-02-11T05:41:03.286Z,30.40
2023-02-11T05:43:30.263Z,35.90
2023-02-11T05:45:57.329Z,35.67
2023-02-11T05:48:24.135Z,32.38
2023-02-11T05:50:50.897Z,32.42
2023-02-11T05:53:17.679Z,30.77
2023-02-11T05:55:44.663Z,33.28
2023-02-11T05:58:11.666Z,34.63
2023-02-11T06:00:38.505Z,37.47
2023-02-11T06:03:05.734Z,33.25
2023-02-11T06:05:32.701Z,37.13
2023-02-11T06:07:59.841Z,34.75
2023-02-11T06:10:27.029Z,34.60
2023-02-11T06:12:53.854Z,36.22
2023-02-11T06:15:20.603Z,33.38
2023-02-11T06:17:47.349Z,36.88
2023-02-11T06:20:14.316Z,33.92
2023-02-11T06:22:40.953Z,36.63
2023-02-11T06:25:07.903Z,36.03
2023-02-11T07:17:05.681Z,39.67
2023-02-11T07:19:32.926Z,35.53
2023-02-11T07:21:59.727Z,36.03
2023-02-11T07:24:26.476Z,38.75
2023-02-11T07:26:54.178Z,34.55
2023-02-11T07:29:20.825Z,36.40
2023-02-11T07:31:47.756Z,34.08
2023-02-11T07:34:14.633Z,40.70
2023-02-11T07:36:43.721Z,35.70
2023-02-11T07:39:10.817Z,35.40
2023-02-11T07:41:38.302Z,34.92
2023-02-11T07:44:05.267Z,37.92
2023-02-11T07:46:32.474Z,34.30
2023-02-11T07:48:59.306Z,33.75
2023-02-11T07:51:30.962Z,36.40
2023-02-11T07:53:59.985Z,32.72
2023-02-11T07:56:27.500Z,36.40
2023-02-11T07:58:55.464Z,34.35
2023-02-11T08:01:28.427Z,36.40
2023-02-11T08:03:59.919Z,33.92
2023-02-11T08:06:29.482Z,37.50
2023-02-11T08:08:56.324Z,35.67
2023-02-11T08:11:26.354Z,36.40
2023-02-11T08:13:55.476Z,35.35
2023-02-11T08:16:25.124Z,37.95
2023-02-11T08:18:53.637Z,33.07
2023-02-11T08:21:21.042Z,33.90
2023-02-11T08:23:49.475Z,40.38
2023-02-11T08:26:21.536Z,38.33
2023-02-11T08:28:49.918Z,32.53
2023-02-11T08:31:23.274Z,32.05
2023-02-11T08:33:49.997Z,34.95
2023-02-11T08:36:20.207Z,34.22
2023-02-11T08:38:47.880Z,36.55
2023-02-11T08:41:15.760Z,32.40
2023-02-11T08:43:43.447Z,33.95
2023-02-11T08:46:14.350Z,34.13
2023-02-11T08:48:41.174Z,35.35
2023-02-11T08:51:10.435Z,34.15
2023-02-11T08:53:37.604Z,32.45
2023-02-11T08:56:05.422Z,30.88
2023-02-11T08:58:32.530Z,33.25
2023-02-11T09:00:59.485Z,30.02
2023-02-11T09:03:26.641Z,31.25
2023-02-11T09:05:53.956Z,33.08
2023-02-11T09:08:21.440Z,33.00
2023-02-11T09:10:48.905Z,32.97
2023-02-11T09:13:16.931Z,32.60
2023-02-11T09:15:47.058Z,36.13
2023-02-11T09:18:14.167Z,30.67
2023-02-11T09:20:41.043Z,31.50
2023-02-11T09:23:07.934Z,33.80
2023-02-11T09:25:34.688Z,31.83
2023-02-11T09:28:01.488Z,33.50
2023-02-11T09:30:28.874Z,27.50
2023-02-11T09:32:55.738Z,28.83
2023-02-11T09:35:22.525Z,31.08
2023-02-11T09:37:49.500Z,31.30
2023-02-11T09:40:16.903Z,28.48
2023-02-11T09:42:46.810Z,26.98
2023-02-11T09:45:26.663Z,28.83
2023-02-11T09:48:00.629Z,32.35
2023-02-11T09:50:35.169Z,27.90
2023-02-11T09:53:06.789Z,25.85
2023-02-11T09:55:39.579Z,27.98
2023-02-11T09:58:16.456Z,28.95
2023-02-11T10:00:48.942Z,27.20
2023-02-11T10:03:21.425Z,27.40
2023-02-11T10:06:16.327Z,25.10
2023-02-11T10:09:08.784Z,27.75
2023-02-11T10:11:35.761Z,24.98
2023-02-11T10:14:19.132Z,24.58
2023-02-11T10:16:56.417Z,28.48
2023-02-11T10:19:46.258Z,27.77
2023-02-11T10:22:34.366Z,27.13
2023-02-11T10:25:17.803Z,27.17
2023-02-11T10:27:45.218Z,23.42
2023-02-11T10:30:37.623Z,26.27
2023-02-11T10:33:15.627Z,24.25
2023-02-11T10:35:44.002Z,26.10
2023-02-11T10:38:11.964Z,23.58
2023-02-11T10:40:38.976Z,24.42
2023-02-11T10:43:12.250Z,21.90
2023-02-11T10:45:46.431Z,24.15
2023-02-11T10:48:38.614Z,24.58
2023-02-11T10:51:09.229Z,24.60
2023-02-11T10:56:06.197Z,22.40
2023-02-11T10:58:46.551Z,24.40
2023-02-11T11:01:23.964Z,24.80
2023-02-11T11:03:53.210Z,22.45
2023-02-11T11:06:33.694Z,23.33
2023-02-11T11:09:01.315Z,24.05
2023-02-11T11:11:28.430Z,22.50
2023-02-11T11:13:58.329Z,21.75
2023-02-11T11:16:32.561Z,20.33
2023-02-11T11:19:08.575Z,21.88
2023-02-11T11:21:47.744Z,25.17
2023-02-11T11:24:26.874Z,20.60
2023-02-11T11:26:59.631Z,21.63
2023-02-11T11:29:47.111Z,21.85
2023-02-11T11:32:22.350Z,21.05
2023-02-11T11:34:54.048Z,22.30
2023-02-11T11:37:28.838Z,23.05
2023-02-11T11:40:08.872Z,23.23
2023-02-11T11:42:38.136Z,22.23
2023-02-11T11:45:26.572Z,21.92
2023-02-11T11:47:58.480Z,23.15
2023-02-11T11:50:33.340Z,25.35
2023-02-11T11:53:05.391Z,19.02
2023-02-11T11:56:02.224Z,20.20
2023-02-11T11:58:31.630Z,24.23
2023-02-11T12:01:16.864Z,22.65
2023-02-11T12:04:17.936Z,20.27
2023-02-11T12:07:06.449Z,20.20
2023-02-11T12:09:45.106Z,20.65
2023-02-11T12:12:23.706Z,25.25
2023-02-11T12:15:17.766Z,24.17
2023-02-11T12:18:06.112Z,26.20
2023-02-11T12:20:51.725Z,20.50
2023-02-11T12:23:49.670Z,21.75
2023-02-11T12:26:22.624Z,22.92
2023-02-11T12:28:55.333Z,21.92
2023-02-11T12:31:35.753Z,25.38
2023-02-11T12:34:28.725Z,23.75
2023-02-11T12:37:07.539Z,21.88
2023-02-11T12:39:45.561Z,20.25
2023-02-11T12:42:49.748Z,22.50
2023-02-11T12:45:22.909Z,22.92
2023-02-11T12:48:13.230Z,25.08
2023-02-11T12:51:05.209Z,23.23
2023-02-11T12:53:50.003Z,20.75
2023-02-11T12:56:16.687Z,20.73
2023-02-11T12:58:46.862Z,22.63
2023-02-11T13:01:23.672Z,21.95
2023-02-11T13:03:57.072Z,18.73
2023-02-11T13:06:37.366Z,23.85
2023-02-11T13:09:10.081Z,18.42
2023-02-11T13:11:52.185Z,21.23
2023-02-11T13:14:31.523Z,20.77
2023-02-11T13:16:59.354Z,18.55
2023-02-11T13:19:29.151Z,20.98
2023-02-11T13:22:20.481Z,18.92
2023-02-11T13:25:03.902Z,20.27
2023-02-11T13:27:51.381Z,24.77
2023-02-11T13:30:41.046Z,20.10
2023-02-11T13:33:21.440Z,18.73
2023-02-11T13:36:09.719Z,16.45
2023-02-11T13:38:37.707Z,21.70
2023-02-11T13:41:18.176Z,16.73
2023-02-11T13:43:56.781Z,23.65
2023-02-11T13:46:23.860Z,19.58
2023-02-11T13:48:53.117Z,21.17
2023-02-11T13:51:42.290Z,19.77
2023-02-11T13:54:19.842Z,23.30
2023-02-11T13:57:15.596Z,22.38
2023-02-11T13:59:42.217Z,23.65
2023-02-11T14:02:51.044Z,22.95
2023-02-11T14:05:49.236Z,23.67
2023-02-11T14:08:43.067Z,24.27
2023-02-11T14:11:21.845Z,24.95
2023-02-11T14:13:48.702Z,21.17
2023-02-11T14:16:36.759Z,21.55
2023-02-11T14:19:06.562Z,21.83
2023-02-11T14:21:37.377Z,16.88
2023-02-11T14:26:52.589Z,21.15
2023-02-11T14:29:31.579Z,20.27
2023-02-11T14:32:18.825Z,19.10
2023-02-11T14:34:54.388Z,22.63
2023-02-11T14:37:40.148Z,19.52
2023-02-11T14:40:29.426Z,19.17
2023-02-11T14:43:00.793Z,18.13
2023-02-11T14:45:29.234Z,20.63
2023-02-11T14:48:19.117Z,22.40
2023-02-11T14:50:50.530Z,18.05
2023-02-11T14:53:21.491Z,21.45
2023-02-11T14:55:53.941Z,17.83
2023-02-11T14:58:30.077Z,23.40
2023-02-11T15:01:02.763Z,18.75
2023-02-11T15:03:41.249Z,18.10
2023-02-11T15:06:18.458Z,19.73
2023-02-11T15:08:49.243Z,20.73
2023-02-11T15:11:19.813Z,21.42
2023-02-11T15:16:21.042Z,20.23
2023-02-11T15:18:58.132Z,22.95
2023-02-11T15:21:30.053Z,19.52
2023-02-11T15:24:23.960Z,18.35
2023-02-11T15:27:12.936Z,22.17
2023-02-11T15:29:42.907Z,26.55
2023-02-11T15:32:09.649Z,31.35
2023-02-11T15:34:37.387Z,19.95
2023-02-11T15:37:04.678Z,24.67
2023-02-11T15:39:36.820Z,22.35
2023-02-11T15:42:24.808Z,24.88
2023-02-11T15:45:11.874Z,21.65
2023-02-11T15:47:40.715Z,19.98
2023-02-11T15:50:19.468Z,33.38
2023-02-11T15:52:48.186Z,23.88
2023-02-11T15:55:17.009Z,20.92
2023-02-11T15:57:49.319Z,18.05
2023-02-11T16:00:21.588Z,26.02
2023-02-11T16:02:51.012Z,19.55
2023-02-11T16:05:36.558Z,17.92
2023-02-11T16:08:24.778Z,20.70
2023-02-11T16:11:32.114Z,19.88
2023-02-11T16:14:00.892Z,19.90
2023-02-11T16:16:31.186Z,17.38
2023-02-11T16:19:06.065Z,19.00
2023-02-11T16:21:42.561Z,35.65
2023-02-11T16:24:38.411Z,27.05
2023-02-11T16:27:22.261Z,18.98
2023-02-11T16:29:50.747Z,28.58
2023-02-11T16:32:20.498Z,19.05
2023-02-11T16:34:47.700Z,21.70
2023-02-11T16:37:14.866Z,22.85
2023-02-11T16:39:42.046Z,21.48
2023-02-11T16:42:12.628Z,17.92
2023-02-11T16:47:24.250Z,17.85
2023-02-11T16:49:51.304Z,21.85
2023-02-11T16:52:18.823Z,24.50
2023-02-11T16:54:45.717Z,16.35
2023-02-11T16:57:16.850Z,16.08
2023-02-11T16:59:44.085Z,21.45
2023-02-11T17:02:16.969Z,23.60
2023-02-11T17:04:44.230Z,20.85
2023-02-11T17:07:11.171Z,21.38
2023-02-11T17:09:38.011Z,19.17
2023-02-11T17:12:05.049Z,21.92
2023-02-11T17:14:32.022Z,22.33
2023-02-11T17:16:58.831Z,19.85
2023-02-11T17:19:25.946Z,22.70
2023-02-11T17:21:52.838Z,19.17
2023-02-11T17:24:21.500Z,21.77
2023-02-11T17:26:49.468Z,19.42
2023-02-11T17:29:21.436Z,23.48
2023-02-11T17:31:48.365Z,20.67
2023-02-11T17:34:16.469Z,22.85
2023-02-11T17:36:43.482Z,18.67
2023-02-11T17:39:10.586Z,20.83
2023-02-11T17:41:38.923Z,21.88
2023-02-11T17:44:06.257Z,21.13
2023-02-11T17:46:34.918Z,21.05
2023-02-11T17:49:02.861Z,20.60
2023-02-11T17:51:33.034Z,23.17
2023-02-11T17:54:05.969Z,21.13
2023-02-11T17:56:34.002Z,19.95
2023-02-11T17:59:02.504Z,21.25
2023-02-11T18:01:31.579Z,21.08
2023-02-11T18:03:58.424Z,21.27
2023-02-11T18:06:25.604Z,26.95
2023-02-11T18:08:52.612Z,24.33
2023-02-11T18:11:21.548Z,25.88
2023-02-11T18:13:54.579Z,23.10
2023-02-11T18:16:23.131Z,25.17
2023-02-11T18:18:50.382Z,25.17
2023-02-11T18:21:20.081Z,21.40
2023-02-11T18:23:47.373Z,27.03
2023-02-11T18:26:16.781Z,23.90
2023-02-11T18:28:45.944Z,24.27
2023-02-11T18:31:14.539Z,22.40
2023-02-11T18:33:42.369Z,21.80
2023-02-11T18:36:12.618Z,24.17
2023-02-11T18:38:40.091Z,19.77
2023-02-11T18:41:07.547Z,21.75
2023-02-11T18:43:37.547Z,22.38
2023-02-11T18:46:09.939Z,22.77
2023-02-11T18:48:37.610Z,20.45
2023-02-11T18:51:15.299Z,23.02
2023-02-11T18:53:43.422Z,23.75
2023-02-11T18:56:20.624Z,23.60
2023-02-11T18:58:48.970Z,22.77
2023-02-11T19:01:25.843Z,20.52
2023-02-11T19:03:54.095Z,20.70
2023-02-11T19:06:27.529Z,25.88
2023-02-11T19:08:59.010Z,24.38
2023-02-11T19:11:46.846Z,24.58
2023-02-11T19:14:20.931Z,24.55
2023-02-11T19:16:50.212Z,20.45
2023-02-11T19:19:17.933Z,22.75
2023-02-11T19:21:46.294Z,23.67
2023-02-11T19:24:20.197Z,26.20
2023-02-11T19:26:49.450Z,22.98
2023-02-11T19:29:16.477Z,22.98
2023-02-11T19:31:44.232Z,26.55
2023-02-11T19:34:14.102Z,22.02
2023-02-11T19:36:41.560Z,22.10
2023-02-11T19:39:09.186Z,23.35
2023-02-11T19:41:36.786Z,24.30
2023-02-11T19:44:04.941Z,23.25
2023-02-11T19:46:36.111Z,19.20
2023-02-11T19:49:04.199Z,22.83
2023-02-11T19:51:33.922Z,22.92
2023-02-11T19:54:01.018Z,23.07
2023-02-11T19:56:28.689Z,25.52
2023-02-11T19:58:55.767Z,26.23
2023-02-11T20:01:25.105Z,20.95
2023-02-11T20:03:57.266Z,22.42
2023-02-11T20:06:29.961Z,26.42
2023-02-11T20:09:03.037Z,22.27
2023-02-11T20:11:31.758Z,22.15
2023-02-11T20:13:59.337Z,21.30
2023-02-11T20:16:46.278Z,22.58
2023-02-11T20:19:18.337Z,19.85
2023-02-11T20:21:47.779Z,17.65
2023-02-11T20:24:16.409Z,20.25
2023-02-11T20:26:43.759Z,21.25
2023-02-11T20:29:10.492Z,20.65
2023-02-11T20:31:37.943Z,20.30
2023-02-11T20:34:05.139Z,19.30
2023-02-11T20:36:35.593Z,19.48
2023-02-11T20:41:34.553Z,23.80
2023-02-11T20:44:04.513Z,19.95
2023-02-11T20:46:33.166Z,20.45
2023-02-11T20:49:01.501Z,21.83
2023-02-11T20:51:35.356Z,22.65
2023-02-11T20:54:02.644Z,23.92
2023-02-11T20:56:32.798Z,22.17
2023-02-11T20:59:02.179Z,20.05
2023-02-11T21:01:33.353Z,20.85
2023-02-11T21:04:06.338Z,23.10
2023-02-11T21:06:36.864Z,22.15
2023-02-11T21:11:31.729Z,22.10
2023-02-11T21:13:58.934Z,22.80
2023-02-11T21:16:25.990Z,24.63
2023-02-11T21:18:52.834Z,20.17
2023-02-11T21:21:20.159Z,24.17
2023-02-11T21:23:47.404Z,24.00
2023-02-11T21:26:15.729Z,22.27
2023-02-11T21:28:42.875Z,26.50
2023-02-11T21:31:10.224Z,23.20
2023-02-11T21:33:37.021Z,22.42
2023-02-11T21:36:04.942Z,28.63
2023-02-11T21:38:32.758Z,26.55
2023-02-11T21:41:04.445Z,20.85
2023-02-11T21:43:31.993Z,23.00
2023-02-11T21:45:59.216Z,21.98
2023-02-11T21:48:26.748Z,27.30
2023-02-11T21:50:54.200Z,21.73
2023-02-11T21:53:21.094Z,21.05
2023-02-11T21:55:47.853Z,21.15
2023-02-11T21:58:14.939Z,20.88
2023-02-11T22:00:41.747Z,25.52
2023-02-11T22:03:08.602Z,20.83
2023-02-11T22:05:35.451Z,22.42
2023-02-11T22:08:02.195Z,21.67
2023-02-11T22:10:28.889Z,21.20
2023-02-11T22:12:55.857Z,22.13
2023-02-11T22:15:22.784Z,23.83
2023-02-11T22:17:49.632Z,24.40
2023-02-11T22:20:17.018Z,23.88
2023-02-11T22:22:43.833Z,23.50
2023-02-11T22:25:10.552Z,21.52
2023-02-11T22:27:37.638Z,23.55
2023-02-11T22:30:04.884Z,21.52
2023-02-11T22:32:31.716Z,21.67
2023-02-11T22:34:58.461Z,23.63
2023-02-11T22:37:25.401Z,18.60
2023-02-11T22:39:52.028Z,22.70
2023-02-11T22:42:18.923Z,22.25
2023-02-11T22:44:45.962Z,22.35
2023-02-11T22:47:13.222Z,22.08
2023-02-11T22:49:41.530Z,24.80
2023-02-11T22:52:08.425Z,21.75
2023-02-11T22:54:36.377Z,21.33
2023-02-11T22:57:03.317Z,23.50
2023-02-11T22:59:30.237Z,27.00
2023-02-11T23:01:56.986Z,23.63
2023-02-11T23:04:23.740Z,26.20
2023-02-11T23:06:50.517Z,24.58
2023-02-11T23:09:17.309Z,22.98
2023-02-11T23:11:44.357Z,22.42
2023-02-11T23:14:12.306Z,22.67
2023-02-11T23:16:39.452Z,24.35
2023-02-11T23:19:09.397Z,28.25
2023-02-11T23:21:38.492Z,24.65
2023-02-11T23:24:09.040Z,23.17
2023-02-11T23:29:04.268Z,22.63
2023-02-11T23:31:34.763Z,23.77
2023-02-11T23:36:29.097Z,23.42
2023-02-11T23:38:55.870Z,26.20
2023-02-11T23:41:23.811Z,23.95
2023-02-11T23:43:55.035Z,24.33
2023-02-11T23:46:23.440Z,30.52
2023-02-11T23:48:51.414Z,26.55
2023-02-11T23:51:19.360Z,25.65
2023-02-11T23:53:46.552Z,23.60
2023-02-11T23:56:17.172Z,26.55
2023-02-11T23:58:44.847Z,26.33
